createdAt,value
2022-07-31T00:01:21.399Z,94254.84
2022-07-31T00:03:48.134Z,94258.78
2022-07-31T00:06:15.062Z,94258.97
2022-07-31T00:08:41.735Z,94260.81
2022-07-31T00:11:11.697Z,94253.50
2022-07-31T00:13:57.568Z,94251.38
2022-07-31T00:16:25.567Z,94248.50
2022-07-31T00:18:52.308Z,94248.81
2022-07-31T00:21:19.151Z,94254.84
2022-07-31T00:23:45.886Z,94253.56
2022-07-31T00:26:12.567Z,94250.38
2022-07-31T00:28:39.315Z,94253.09
2022-07-31T00:31:05.971Z,94257.94
2022-07-31T00:33:32.688Z,94256.09
2022-07-31T00:35:59.366Z,94253.94
2022-07-31T00:38:27.628Z,94254.53
2022-07-31T00:40:54.606Z,94268.16
2022-07-31T00:43:21.357Z,94254.53
2022-07-31T00:45:56.306Z,94251.84
2022-07-31T00:48:26.056Z,94252.91
2022-07-31T00:50:54.735Z,94250.22
2022-07-31T00:53:21.388Z,94252.63
2022-07-31T00:55:51.733Z,94248.72
2022-07-31T00:58:20.106Z,94255.31
2022-07-31T01:00:47.607Z,94251.97
2022-07-31T01:03:14.822Z,94246.72
2022-07-31T01:05:41.919Z,94246.72
2022-07-31T01:08:08.659Z,94254.34
2022-07-31T01:10:50.378Z,94256.19
2022-07-31T01:13:25.650Z,94257.09
2022-07-31T01:15:54.212Z,94250.28
2022-07-31T01:18:22.829Z,94249.06
2022-07-31T01:20:49.983Z,94247.47
2022-07-31T01:23:23.356Z,94248.66
2022-07-31T01:26:02.209Z,94255.16
2022-07-31T01:28:58.356Z,94256.19
2022-07-31T01:31:35.580Z,94244.94
2022-07-31T01:34:08.462Z,94247.78
2022-07-31T01:36:37.229Z,94256.88
2022-07-31T01:39:04.255Z,94248.03
2022-07-31T01:41:35.072Z,94255.41
2022-07-31T01:44:03.974Z,94252.00
2022-07-31T01:46:31.085Z,94246.50
2022-07-31T01:49:04.613Z,94251.75
2022-07-31T01:51:32.013Z,94248.88
2022-07-31T01:54:01.182Z,94249.38
2022-07-31T01:56:30.200Z,94253.56
2022-07-31T01:58:58.536Z,94251.13
2022-07-31T02:01:27.484Z,94253.50
2022-07-31T02:03:56.374Z,94248.59
2022-07-31T02:06:23.800Z,94243.53
2022-07-31T02:08:52.924Z,94246.34
2022-07-31T02:11:20.332Z,94239.75
2022-07-31T02:13:47.749Z,94240.31
2022-07-31T02:16:15.474Z,94229.38
2022-07-31T02:18:42.595Z,94236.66
2022-07-31T02:21:09.440Z,94241.09
2022-07-31T02:23:37.127Z,94231.41
2022-07-31T02:26:07.247Z,94234.22
2022-07-31T02:28:36.110Z,94226.06
2022-07-31T02:31:03.177Z,94236.84
2022-07-31T02:33:30.635Z,94232.44
2022-07-31T02:35:58.170Z,94228.75
2022-07-31T02:38:27.288Z,94233.72
2022-07-31T02:40:57.917Z,94234.22
2022-07-31T02:43:26.769Z,94218.03
2022-07-31T02:45:55.118Z,94231.34
2022-07-31T02:48:22.005Z,94230.63
2022-07-31T02:50:48.865Z,94236.34
2022-07-31T02:53:15.803Z,94225.81
2022-07-31T02:55:44.698Z,94231.34
2022-07-31T02:58:12.329Z,94226.13
2022-07-31T03:00:39.240Z,94221.75
2022-07-31T03:03:06.008Z,94220.56
2022-07-31T03:05:32.730Z,94218.75
2022-07-31T03:07:59.557Z,94231.34
2022-07-31T03:10:26.249Z,94213.59
2022-07-31T03:12:53.537Z,94216.44
2022-07-31T03:15:23.694Z,94228.13
2022-07-31T03:17:51.247Z,94239.63
2022-07-31T03:20:18.195Z,94235.72
2022-07-31T03:22:45.806Z,94227.38
2022-07-31T03:25:21.342Z,94228.06
2022-07-31T03:27:52.475Z,94243.63
2022-07-31T03:30:25.455Z,94226.75
2022-07-31T03:32:53.252Z,94221.75
2022-07-31T03:35:20.161Z,94226.38
2022-07-31T03:37:46.985Z,94233.44
2022-07-31T03:40:13.983Z,94229.03
2022-07-31T03:42:41.131Z,94234.03
2022-07-31T03:45:09.846Z,94229.53
2022-07-31T03:47:36.773Z,94233.28
2022-07-31T03:50:03.955Z,94230.38
2022-07-31T03:52:31.646Z,94230.47
2022-07-31T03:54:58.383Z,94234.03
2022-07-31T03:57:28.725Z,94229.28
2022-07-31T03:59:59.973Z,94240.09
2022-07-31T04:02:28.078Z,94244.34
2022-07-31T04:04:55.172Z,94227.75
2022-07-31T04:07:21.849Z,94224.09
2022-07-31T04:09:48.569Z,94231.31
2022-07-31T04:12:15.346Z,94236.31
2022-07-31T04:14:42.022Z,94241.00
2022-07-31T04:17:09.262Z,94234.75
2022-07-31T04:19:36.152Z,94241.09
2022-07-31T04:22:03.919Z,94248.41
2022-07-31T04:24:30.965Z,94244.75
2022-07-31T04:26:58.165Z,94247.91
2022-07-31T04:29:25.051Z,94261.06
2022-07-31T04:31:51.685Z,94259.50
2022-07-31T04:34:18.340Z,94245.47
2022-07-31T04:36:44.974Z,94249.31
2022-07-31T04:39:11.670Z,94255.59
2022-07-31T04:41:38.343Z,94238.84
2022-07-31T04:44:05.083Z,94246.38
2022-07-31T04:46:31.792Z,94253.47
2022-07-31T04:48:58.457Z,94260.81
2022-07-31T04:51:25.275Z,94269.78
2022-07-31T04:53:52.078Z,94260.97
2022-07-31T04:56:42.196Z,94265.34
2022-07-31T04:59:20.336Z,94268.16
2022-07-31T05:01:48.247Z,94262.41
2022-07-31T05:04:16.267Z,94268.84
2022-07-31T05:06:48.451Z,94273.41
2022-07-31T05:09:19.262Z,94275.25
2022-07-31T05:11:50.111Z,94276.84
2022-07-31T05:14:18.671Z,94283.44
2022-07-31T05:16:45.860Z,94272.97
2022-07-31T05:19:14.805Z,94270.84
2022-07-31T05:21:48.454Z,94263.47
2022-07-31T05:24:33.618Z,94272.63
2022-07-31T05:27:02.133Z,94276.75
2022-07-31T05:29:29.414Z,94274.13
2022-07-31T05:32:10.180Z,94285.41
2022-07-31T05:34:37.095Z,94273.66
2022-07-31T05:37:04.551Z,94269.66
2022-07-31T05:39:31.535Z,94272.91
2022-07-31T05:41:58.274Z,94284.06
2022-07-31T05:44:25.159Z,94282.78
2022-07-31T05:49:18.224Z,94284.38
2022-07-31T05:51:46.874Z,94296.78
2022-07-31T05:54:14.009Z,94299.94
2022-07-31T05:56:40.840Z,94310.78
2022-07-31T05:59:07.561Z,94303.44
2022-07-31T06:01:34.442Z,94302.63
2022-07-31T06:04:02.650Z,94309.81
2022-07-31T06:06:29.556Z,94313.75
2022-07-31T06:08:59.408Z,94310.06
2022-07-31T06:11:30.248Z,94301.16
2022-07-31T06:13:56.879Z,94299.09
2022-07-31T06:16:23.711Z,94296.25
2022-07-31T06:18:51.051Z,94303.44
2022-07-31T06:23:43.317Z,94332.41
2022-07-31T06:26:12.346Z,94307.69
2022-07-31T06:28:49.037Z,94312.94
2022-07-31T06:31:22.838Z,94310.66
2022-07-31T06:33:51.011Z,94318.88
2022-07-31T06:36:19.459Z,94313.25
2022-07-31T06:38:46.394Z,94333.78
2022-07-31T06:41:33.288Z,94318.88
2022-07-31T06:44:00.077Z,94323.34
2022-07-31T06:46:26.969Z,94327.22
2022-07-31T06:48:53.766Z,94315.94
2022-07-31T06:51:30.943Z,94319.81
2022-07-31T06:53:59.262Z,94332.78
2022-07-31T06:56:26.005Z,94329.94
2022-07-31T06:58:55.277Z,94339.44
2022-07-31T07:01:22.536Z,94331.53
2022-07-31T07:03:49.361Z,94329.44
2022-07-31T07:06:16.392Z,94327.28
2022-07-31T07:08:42.990Z,94331.94
2022-07-31T07:11:12.330Z,94315.81
2022-07-31T07:13:45.681Z,94319.97
2022-07-31T07:16:14.622Z,94323.06
2022-07-31T07:18:41.713Z,94314.88
2022-07-31T07:21:09.035Z,94315.75
2022-07-31T07:23:35.927Z,94313.09
2022-07-31T07:26:03.350Z,94311.69
2022-07-31T07:28:31.308Z,94310.25
2022-07-31T07:30:58.469Z,94309.13
2022-07-31T07:33:41.488Z,94311.69
2022-07-31T07:36:23.301Z,94315.03
2022-07-31T07:38:53.683Z,94305.44
2022-07-31T07:41:22.949Z,94300.41
2022-07-31T07:43:52.463Z,94302.16
2022-07-31T07:46:20.313Z,94315.25
2022-07-31T07:48:47.065Z,94309.13
2022-07-31T07:51:14.073Z,94300.69
2022-07-31T07:53:41.011Z,94292.56
2022-07-31T07:56:07.799Z,94298.34
2022-07-31T07:58:34.691Z,94293.00
2022-07-31T08:01:01.824Z,94297.91
2022-07-31T08:03:48.492Z,94297.06
2022-07-31T08:06:15.410Z,94294.41
2022-07-31T08:08:42.981Z,94311.91
2022-07-31T08:11:10.038Z,94296.59
2022-07-31T08:13:39.849Z,94289.72
2022-07-31T08:16:07.801Z,94298.66
2022-07-31T08:18:34.660Z,94294.75
2022-07-31T08:21:01.486Z,94290.56
2022-07-31T08:23:28.330Z,94294.63
2022-07-31T08:25:55.401Z,94301.47
2022-07-31T08:28:25.859Z,94295.69
2022-07-31T08:30:52.851Z,94289.13
2022-07-31T08:33:19.852Z,94283.91
2022-07-31T08:35:50.552Z,94297.97
2022-07-31T08:38:20.875Z,94285.19
2022-07-31T08:40:47.916Z,94285.38
2022-07-31T08:44:00.480Z,94280.88
2022-07-31T08:46:05.436Z,94285.47
2022-07-31T08:48:33.448Z,94282.13
2022-07-31T08:51:03.548Z,94289.47
2022-07-31T08:53:33.086Z,94278.31
2022-07-31T08:56:00.830Z,94294.75
2022-07-31T08:58:27.658Z,94287.13
2022-07-31T09:00:55.167Z,94293.09
2022-07-31T09:03:21.991Z,94287.16
2022-07-31T09:05:48.912Z,94276.47
2022-07-31T09:08:15.725Z,94271.78
2022-07-31T09:10:47.743Z,94277.25
2022-07-31T09:13:18.387Z,94282.38
2022-07-31T09:15:45.325Z,94283.03
2022-07-31T09:18:22.299Z,94291.19
2022-07-31T09:20:58.938Z,94278.03
2022-07-31T09:23:28.047Z,94272.56
2022-07-31T09:25:59.024Z,94273.03
2022-07-31T09:28:39.951Z,94287.44
2022-07-31T09:31:08.731Z,94279.75
2022-07-31T09:33:45.224Z,94277.06
2022-07-31T09:36:13.560Z,94280.22
2022-07-31T09:38:42.524Z,94272.56
2022-07-31T09:41:55.465Z,94273.59
2022-07-31T09:44:10.590Z,94272.41
2022-07-31T09:46:46.213Z,94259.38
2022-07-31T09:49:13.402Z,94267.84
2022-07-31T09:51:42.027Z,94273.34
2022-07-31T09:54:20.780Z,94267.06
2022-07-31T09:56:49.958Z,94263.22
2022-07-31T09:59:17.348Z,94269.53
2022-07-31T10:01:48.857Z,94264.88
2022-07-31T10:04:20.334Z,94271.47
2022-07-31T10:06:51.933Z,94263.25
2022-07-31T10:09:20.590Z,94269.94
2022-07-31T10:11:49.345Z,94267.22
2022-07-31T10:14:21.521Z,94256.78
2022-07-31T10:16:49.299Z,94254.66
2022-07-31T10:19:16.475Z,94261.56
2022-07-31T10:21:58.601Z,94260.09
2022-07-31T10:24:28.501Z,94254.34
2022-07-31T10:27:10.441Z,94258.34
2022-07-31T10:29:39.599Z,94258.19
2022-07-31T10:32:07.812Z,94265.47
2022-07-31T10:34:35.085Z,94268.75
2022-07-31T10:37:12.112Z,94257.88
2022-07-31T10:40:00.230Z,94259.16
2022-07-31T10:42:44.397Z,94263.50
2022-07-31T10:45:14.212Z,94270.28
2022-07-31T10:47:48.665Z,94270.13
2022-07-31T10:50:24.166Z,94276.44
2022-07-31T10:52:51.683Z,94279.13
2022-07-31T10:55:22.552Z,94263.25
2022-07-31T10:57:57.288Z,94274.41
2022-07-31T11:00:28.269Z,94264.75
2022-07-31T11:02:56.799Z,94277.78
2022-07-31T11:05:24.659Z,94266.25
2022-07-31T11:08:05.594Z,94276.38
2022-07-31T11:10:34.290Z,94281.63
2022-07-31T11:13:02.575Z,94273.97
2022-07-31T11:15:29.559Z,94288.28
2022-07-31T11:18:22.196Z,94274.97
2022-07-31T11:20:47.080Z,94275.84
2022-07-31T11:23:17.853Z,94269.66
2022-07-31T11:25:46.364Z,94255.31
2022-07-31T11:28:19.367Z,94269.59
2022-07-31T11:30:53.438Z,94276.91
2022-07-31T11:33:42.673Z,94281.69
2022-07-31T11:36:14.373Z,94283.00
2022-07-31T11:38:46.859Z,94283.53
2022-07-31T11:41:15.128Z,94276.31
2022-07-31T11:43:50.343Z,94288.66
2022-07-31T11:46:26.108Z,94288.06
2022-07-31T11:48:54.561Z,94283.22
2022-07-31T11:51:21.951Z,94292.03
2022-07-31T11:53:51.121Z,94284.00
2022-07-31T11:56:25.042Z,94287.53
2022-07-31T11:58:54.061Z,94284.19
2022-07-31T12:01:27.948Z,94286.75
2022-07-31T12:03:55.199Z,94294.22
2022-07-31T12:06:22.429Z,94296.78
2022-07-31T12:08:50.095Z,94294.53
2022-07-31T12:11:20.521Z,94288.06
2022-07-31T12:13:48.517Z,94294.25
2022-07-31T12:16:16.301Z,94294.13
2022-07-31T12:18:59.300Z,94286.47
2022-07-31T12:21:40.274Z,94290.13
2022-07-31T12:24:14.629Z,94289.59
2022-07-31T12:26:44.521Z,94276.44
2022-07-31T12:29:12.663Z,94280.28
2022-07-31T12:31:51.361Z,94279.13
2022-07-31T12:34:28.809Z,94280.66
2022-07-31T12:36:59.912Z,94273.34
2022-07-31T12:39:53.736Z,94281.03
2022-07-31T12:42:30.738Z,94278.47
2022-07-31T12:45:19.533Z,94269.75
2022-07-31T12:47:52.134Z,94269.59
2022-07-31T12:50:22.961Z,94268.09
2022-07-31T12:52:49.740Z,94262.25
2022-07-31T12:55:17.392Z,94267.13
2022-07-31T12:57:51.914Z,94273.66
2022-07-31T13:00:23.986Z,94270.97
2022-07-31T13:02:54.667Z,94269.13
2022-07-31T13:05:22.402Z,94274.41
2022-07-31T13:07:49.939Z,94261.59
2022-07-31T13:10:22.029Z,94263.34
2022-07-31T13:12:51.396Z,94262.16
2022-07-31T13:15:20.729Z,94266.44
2022-07-31T13:17:50.712Z,94269.84
2022-07-31T13:20:18.334Z,94255.53
2022-07-31T13:22:45.186Z,94257.56
2022-07-31T13:25:12.230Z,94253.59
2022-07-31T13:27:39.643Z,94256.16
2022-07-31T13:30:09.354Z,94252.31
2022-07-31T13:32:36.112Z,94260.75
2022-07-31T13:35:19.813Z,94248.50
2022-07-31T13:37:50.250Z,94254.69
2022-07-31T13:40:19.140Z,94257.94
2022-07-31T13:42:45.940Z,94262.28
2022-07-31T13:45:12.686Z,94260.53
2022-07-31T13:47:50.698Z,94255.06
2022-07-31T13:50:19.026Z,94254.72
2022-07-31T13:52:45.901Z,94258.56
2022-07-31T13:55:12.756Z,94253.84
2022-07-31T13:57:39.539Z,94249.81
2022-07-31T14:00:07.019Z,94254.91
2022-07-31T14:02:33.875Z,94255.69
2022-07-31T14:05:00.631Z,94249.84
2022-07-31T14:07:48.228Z,94253.19
2022-07-31T14:10:19.970Z,94245.72
2022-07-31T14:12:47.359Z,94253.13
2022-07-31T14:15:14.229Z,94254.13
2022-07-31T14:17:41.024Z,94251.38
2022-07-31T14:20:08.503Z,94238.22
2022-07-31T14:22:35.518Z,94247.75
2022-07-31T14:25:02.270Z,94254.72
2022-07-31T14:27:29.085Z,94247.34
2022-07-31T14:29:55.985Z,94249.94
2022-07-31T14:32:22.878Z,94247.78
2022-07-31T14:34:50.520Z,94241.38
2022-07-31T14:37:17.456Z,94253.25
2022-07-31T14:39:44.510Z,94252.75
2022-07-31T14:42:12.154Z,94240.94
2022-07-31T14:44:41.843Z,94251.97
2022-07-31T14:47:10.207Z,94250.59
2022-07-31T14:50:08.373Z,94252.66
2022-07-31T14:52:24.163Z,94251.47
2022-07-31T14:54:54.014Z,94245.69
2022-07-31T14:57:22.404Z,94257.47
2022-07-31T14:59:50.530Z,94247.19
2022-07-31T15:02:22.270Z,94239.75
2022-07-31T15:04:50.800Z,94230.88
2022-07-31T15:07:34.702Z,94238.03
2022-07-31T15:10:07.209Z,94238.41
2022-07-31T15:12:34.225Z,94233.69
2022-07-31T15:15:01.562Z,94235.44
2022-07-31T15:17:28.699Z,94235.84
2022-07-31T15:19:55.627Z,94230.69
2022-07-31T15:22:22.483Z,94239.97
2022-07-31T15:24:50.266Z,94229.63
2022-07-31T15:27:18.631Z,94225.03
2022-07-31T15:30:00.249Z,94235.06
2022-07-31T15:32:32.601Z,94228.97
2022-07-31T15:34:59.450Z,94231.94
2022-07-31T15:37:26.174Z,94234.97
2022-07-31T15:40:01.524Z,94231.75
2022-07-31T15:42:38.555Z,94229.09
2022-07-31T15:45:09.739Z,94228.97
2022-07-31T15:47:36.583Z,94227.94
2022-07-31T15:50:03.825Z,94221.75
2022-07-31T15:52:30.602Z,94230.78
2022-07-31T15:54:57.359Z,94234.34
2022-07-31T15:57:24.841Z,94224.03
2022-07-31T15:59:54.530Z,94223.72
2022-07-31T16:02:22.412Z,94225.88
2022-07-31T16:04:53.129Z,94222.50
2022-07-31T16:08:31.638Z,94222.69
2022-07-31T16:10:16.466Z,94230.00
2022-07-31T16:12:47.679Z,94223.84
2022-07-31T16:15:16.409Z,94217.03
2022-07-31T16:17:43.979Z,94224.47
2022-07-31T16:20:13.481Z,94215.31
2022-07-31T16:23:01.229Z,94216.41
2022-07-31T16:25:30.020Z,94213.66
2022-07-31T16:27:59.153Z,94207.16
2022-07-31T16:30:27.472Z,94202.44
2022-07-31T16:35:21.814Z,94207.72
2022-07-31T16:37:52.592Z,94212.16
2022-07-31T16:40:29.271Z,94209.50
2022-07-31T16:43:50.955Z,94208.50
2022-07-31T16:45:53.656Z,94197.41
2022-07-31T16:48:20.836Z,94204.00
2022-07-31T16:50:48.304Z,94206.56
2022-07-31T16:54:11.312Z,94206.72
2022-07-31T16:56:07.732Z,94209.50
2022-07-31T16:58:34.982Z,94208.50
2022-07-31T17:01:04.328Z,94207.00
2022-07-31T17:03:58.796Z,94207.28
2022-07-31T17:06:18.429Z,94209.25
2022-07-31T17:09:16.160Z,94207.66
2022-07-31T17:11:46.294Z,94207.28
2022-07-31T17:14:13.131Z,94210.09
2022-07-31T17:16:44.871Z,94204.53
2022-07-31T17:19:13.932Z,94207.75
2022-07-31T17:21:44.437Z,94206.13
2022-07-31T17:24:15.713Z,94213.69
2022-07-31T17:26:43.726Z,94219.75
2022-07-31T17:29:10.681Z,94224.06
2022-07-31T17:31:37.530Z,94223.56
2022-07-31T17:34:09.067Z,94221.06
2022-07-31T17:36:36.661Z,94230.28
2022-07-31T17:39:04.562Z,94222.78
2022-07-31T17:41:31.481Z,94228.69
2022-07-31T17:43:58.262Z,94222.41
2022-07-31T17:46:34.976Z,94227.19
2022-07-31T17:49:06.102Z,94227.09
2022-07-31T17:51:33.294Z,94228.84
2022-07-31T17:54:00.634Z,94229.19
2022-07-31T17:56:27.562Z,94230.56
2022-07-31T17:58:55.691Z,94233.94
2022-07-31T18:01:26.945Z,94229.97
2022-07-31T18:03:55.884Z,94231.56
2022-07-31T18:06:22.774Z,94226.81
2022-07-31T18:08:49.649Z,94223.97
2022-07-31T18:11:16.689Z,94232.63
2022-07-31T18:13:47.939Z,94240.81
2022-07-31T18:16:15.470Z,94232.34
2022-07-31T18:18:42.270Z,94240.09
2022-07-31T18:21:09.259Z,94247.44
2022-07-31T18:23:36.104Z,94246.72
2022-07-31T18:26:03.941Z,94246.28
2022-07-31T18:28:34.052Z,94248.56
2022-07-31T18:31:02.013Z,94252.31
2022-07-31T18:33:29.090Z,94250.53
2022-07-31T18:35:55.871Z,94247.47
2022-07-31T18:38:22.653Z,94253.66
2022-07-31T18:40:49.519Z,94255.25
2022-07-31T18:43:16.275Z,94258.53
2022-07-31T18:45:43.471Z,94261.19
2022-07-31T18:48:10.501Z,94254.06
2022-07-31T18:51:00.504Z,94258.16
2022-07-31T18:53:29.598Z,94258.25
2022-07-31T18:55:57.977Z,94264.44
2022-07-31T18:58:24.998Z,94251.06
2022-07-31T19:00:55.274Z,94255.34
2022-07-31T19:03:26.553Z,94259.66
2022-07-31T19:05:54.613Z,94263.91
2022-07-31T19:08:22.099Z,94259.94
2022-07-31T19:10:53.718Z,94269.88
2022-07-31T19:13:21.537Z,94265.97
2022-07-31T19:15:49.325Z,94272.34
2022-07-31T19:18:16.700Z,94270.78
2022-07-31T19:21:00.065Z,94267.63
2022-07-31T19:23:33.520Z,94278.44
2022-07-31T19:26:03.828Z,94278.16
2022-07-31T19:28:34.824Z,94285.53
2022-07-31T19:31:01.735Z,94284.00
2022-07-31T19:33:32.240Z,94288.16
2022-07-31T19:36:02.198Z,94279.25
2022-07-31T19:38:33.461Z,94282.94
2022-07-31T19:41:00.475Z,94277.63
2022-07-31T19:43:28.543Z,94277.94
2022-07-31T19:46:09.662Z,94289.75
2022-07-31T19:48:43.322Z,94280.03
2022-07-31T19:51:11.171Z,94287.16
2022-07-31T19:53:39.195Z,94285.00
2022-07-31T19:56:06.516Z,94281.63
2022-07-31T19:58:37.464Z,94289.78
2022-07-31T20:01:05.518Z,94285.03
2022-07-31T20:03:32.435Z,94286.09
2022-07-31T20:05:59.506Z,94284.81
2022-07-31T20:08:26.528Z,94287.41
2022-07-31T20:10:59.561Z,94291.34
2022-07-31T20:13:27.901Z,94294.75
2022-07-31T20:15:55.301Z,94296.88
2022-07-31T20:18:28.099Z,94292.16
2022-07-31T20:20:59.982Z,94289.25
2022-07-31T20:23:27.276Z,94290.59
2022-07-31T20:25:54.320Z,94287.16
2022-07-31T20:28:21.600Z,94297.94
2022-07-31T20:30:48.602Z,94301.34
2022-07-31T20:33:15.620Z,94288.72
2022-07-31T20:35:49.034Z,94301.34
2022-07-31T20:38:19.589Z,94292.66
2022-07-31T20:40:53.707Z,94287.16
2022-07-31T20:43:26.307Z,94281.59
2022-07-31T20:45:54.002Z,94284.00
2022-07-31T20:48:24.353Z,94281.63
2022-07-31T20:50:51.764Z,94288.19
2022-07-31T20:53:19.517Z,94289.25
2022-07-31T20:55:49.422Z,94279.78
2022-07-31T20:58:19.720Z,94283.47
2022-07-31T21:00:47.629Z,94284.75
2022-07-31T21:03:15.262Z,94287.41
2022-07-31T21:05:41.993Z,94284.50
2022-07-31T21:08:08.828Z,94286.06
2022-07-31T21:10:36.095Z,94276.88
2022-07-31T21:13:03.237Z,94280.81
2022-07-31T21:15:42.957Z,94283.16
2022-07-31T21:18:16.344Z,94278.44
2022-07-31T21:20:51.644Z,94276.00
2022-07-31T21:23:22.878Z,94268.63
2022-07-31T21:25:54.267Z,94280.78
2022-07-31T21:28:22.218Z,94277.63
2022-07-31T21:30:49.687Z,94271.28
2022-07-31T21:33:18.139Z,94273.91
2022-07-31T21:35:45.955Z,94273.91
2022-07-31T21:38:15.284Z,94281.59
2022-07-31T21:40:42.770Z,94281.56
2022-07-31T21:43:09.826Z,94267.63
2022-07-31T21:45:41.219Z,94270.03
2022-07-31T21:48:22.884Z,94270.75
2022-07-31T21:50:49.813Z,94269.47
2022-07-31T21:53:16.530Z,94269.72
2022-07-31T21:55:43.273Z,94270.22
2022-07-31T21:58:10.126Z,94264.44
2022-07-31T22:00:37.134Z,94271.53
2022-07-31T22:03:04.821Z,94265.00
2022-07-31T22:05:50.131Z,94268.13
2022-07-31T22:08:16.819Z,94268.13
2022-07-31T22:10:43.930Z,94247.63
2022-07-31T22:13:10.605Z,94261.81
2022-07-31T22:15:55.457Z,94263.88
2022-07-31T22:18:26.268Z,94260.22
2022-07-31T22:20:53.812Z,94247.88
2022-07-31T22:23:20.974Z,94261.25
2022-07-31T22:25:49.165Z,94266.00
2022-07-31T22:28:17.846Z,94267.06
2022-07-31T22:30:44.762Z,94270.97
2022-07-31T22:33:11.532Z,94267.84
2022-07-31T22:35:40.470Z,94265.72
2022-07-31T22:38:07.967Z,94266.50
2022-07-31T22:40:34.952Z,94267.56
2022-07-31T22:43:02.527Z,94270.22
2022-07-31T22:45:29.997Z,94258.13
2022-07-31T22:47:57.858Z,94256.00
2022-07-31T22:50:24.957Z,94263.88
2022-07-31T22:52:58.261Z,94263.31
2022-07-31T22:55:24.929Z,94253.56
2022-07-31T22:57:51.556Z,94257.28
2022-07-31T23:00:18.398Z,94248.09
2022-07-31T23:02:45.865Z,94254.38
2022-07-31T23:05:12.796Z,94254.38
2022-07-31T23:07:39.497Z,94242.28
2022-07-31T23:10:07.594Z,94244.06
2022-07-31T23:12:34.277Z,94245.94
2022-07-31T23:15:00.924Z,94246.22
2022-07-31T23:17:27.588Z,94252.56
2022-07-31T23:19:54.818Z,94251.75
2022-07-31T23:22:33.482Z,94244.66
2022-07-31T23:25:08.861Z,94249.66
2022-07-31T23:27:35.793Z,94245.47
2022-07-31T23:30:02.450Z,94246.50
2022-07-31T23:32:29.250Z,94251.00
2022-07-31T23:34:55.930Z,94241.00
2022-07-31T23:37:22.560Z,94241.78
2022-07-31T23:39:49.210Z,94239.69
2022-07-31T23:42:34.689Z,94233.34
2022-07-31T23:45:01.407Z,94238.31
2022-07-31T23:47:44.926Z,94236.47
2022-07-31T23:50:14.309Z,94239.38
2022-07-31T23:52:41.829Z,94227.53
2022-07-31T23:55:09.167Z,94236.44
2022-07-31T23:57:36.183Z,94238.03
